sensor_id;sensor_type;location;lat;lon;timestamp;temperature;humidity
22319;DHT22;11327;52.334;9.506;2022-09-29T00:01:39;7.60;99.90
22319;DHT22;11327;52.334;9.506;2022-09-29T00:05:01;7.50;99.90
22319;DHT22;11327;52.334;9.506;2022-09-29T00:08:24;7.50;99.90
22319;DHT22;11327;52.334;9.506;2022-09-29T00:11:45;7.40;99.90
22319;DHT22;11327;52.334;9.506;2022-09-29T00:15:07;7.40;99.90
22319;DHT22;11327;52.334;9.506;2022-09-29T00:18:29;7.40;99.90
22319;DHT22;11327;52.334;9.506;2022-09-29T00:21:50;7.40;99.90
22319;DHT22;11327;52.334;9.506;2022-09-29T00:25:11;7.30;99.90
22319;DHT22;11327;52.334;9.506;2022-09-29T00:28:34;7.30;99.90
22319;DHT22;11327;52.334;9.506;2022-09-29T00:31:55;7.30;99.90
22319;DHT22;11327;52.334;9.506;2022-09-29T00:35:16;7.30;99.90
22319;DHT22;11327;52.334;9.506;2022-09-29T00:38:38;7.30;99.90
22319;DHT22;11327;52.334;9.506;2022-09-29T00:41:59;7.20;99.90
22319;DHT22;11327;52.334;9.506;2022-09-29T00:45:22;7.20;99.90
22319;DHT22;11327;52.334;9.506;2022-09-29T00:48:44;7.10;99.90
22319;DHT22;11327;52.334;9.506;2022-09-29T00:55:48;7.10;99.90
22319;DHT22;11327;52.334;9.506;2022-09-29T00:59:09;7.00;99.90
22319;DHT22;11327;52.334;9.506;2022-09-29T01:02:33;7.00;99.90
22319;DHT22;11327;52.334;9.506;2022-09-29T01:06:10;7.00;99.90
22319;DHT22;11327;52.334;9.506;2022-09-29T01:09:35;7.00;99.90
22319;DHT22;11327;52.334;9.506;2022-09-29T01:12:57;7.00;99.90
22319;DHT22;11327;52.334;9.506;2022-09-29T01:16:18;7.00;99.90
22319;DHT22;11327;52.334;9.506;2022-09-29T01:19:52;7.00;99.90
22319;DHT22;11327;52.334;9.506;2022-09-29T01:31:13;7.00;99.90
22319;DHT22;11327;52.334;9.506;2022-09-29T01:34:42;7.00;99.90
22319;DHT22;11327;52.334;9.506;2022-09-29T01:38:27;7.00;99.90
22319;DHT22;11327;52.334;9.506;2022-09-29T01:41:50;7.10;99.90
22319;DHT22;11327;52.334;9.506;2022-09-29T01:45:35;7.10;99.90
22319;DHT22;11327;52.334;9.506;2022-09-29T01:48:54;7.10;99.90
22319;DHT22;11327;52.334;9.506;2022-09-29T01:52:18;7.10;99.90
22319;DHT22;11327;52.334;9.506;2022-09-29T01:55:46;7.10;99.90
22319;DHT22;11327;52.334;9.506;2022-09-29T02:06:27;7.10;99.90
22319;DHT22;11327;52.334;9.506;2022-09-29T02:09:51;7.10;99.90
22319;DHT22;11327;52.334;9.506;2022-09-29T02:13:14;7.00;99.90
22319;DHT22;11327;52.334;9.506;2022-09-29T02:16:39;7.00;99.90
22319;DHT22;11327;52.334;9.506;2022-09-29T02:20:01;7.00;99.90
22319;DHT22;11327;52.334;9.506;2022-09-29T02:23:22;6.90;99.90
22319;DHT22;11327;52.334;9.506;2022-09-29T02:26:44;6.90;99.90
22319;DHT22;11327;52.334;9.506;2022-09-29T02:30:06;6.90;99.90
22319;DHT22;11327;52.334;9.506;2022-09-29T02:33:27;6.90;99.90
22319;DHT22;11327;52.334;9.506;2022-09-29T02:51:26;6.80;99.90
22319;DHT22;11327;52.334;9.506;2022-09-29T02:58:32;6.70;99.90
22319;DHT22;11327;52.334;9.506;2022-09-29T03:01:55;6.70;99.90
22319;DHT22;11327;52.334;9.506;2022-09-29T03:05:19;6.70;99.90
22319;DHT22;11327;52.334;9.506;2022-09-29T03:08:40;6.60;99.90
22319;DHT22;11327;52.334;9.506;2022-09-29T03:12:01;6.60;99.90
22319;DHT22;11327;52.334;9.506;2022-09-29T03:15:22;6.60;99.90
22319;DHT22;11327;52.334;9.506;2022-09-29T03:18:44;6.50;99.90
22319;DHT22;11327;52.334;9.506;2022-09-29T03:22:05;6.60;99.90
22319;DHT22;11327;52.334;9.506;2022-09-29T03:25:26;6.60;99.90
22319;DHT22;11327;52.334;9.506;2022-09-29T03:28:47;6.70;99.90
22319;DHT22;11327;52.334;9.506;2022-09-29T03:32:08;6.80;99.90
22319;DHT22;11327;52.334;9.506;2022-09-29T03:35:29;6.80;99.90
22319;DHT22;11327;52.334;9.506;2022-09-29T03:38:50;6.90;99.90
22319;DHT22;11327;52.334;9.506;2022-09-29T03:42:11;6.90;99.90
22319;DHT22;11327;52.334;9.506;2022-09-29T03:45:32;6.90;99.90
22319;DHT22;11327;52.334;9.506;2022-09-29T03:48:53;6.90;99.90
22319;DHT22;11327;52.334;9.506;2022-09-29T03:52:14;6.90;99.90
22319;DHT22;11327;52.334;9.506;2022-09-29T03:55:35;6.90;99.90
22319;DHT22;11327;52.334;9.506;2022-09-29T03:58:56;6.80;99.90
22319;DHT22;11327;52.334;9.506;2022-09-29T04:02:18;6.80;99.90
22319;DHT22;11327;52.334;9.506;2022-09-29T04:05:40;6.70;99.90
22319;DHT22;11327;52.334;9.506;2022-09-29T04:09:01;6.70;99.90
22319;DHT22;11327;52.334;9.506;2022-09-29T04:12:22;6.60;99.90
22319;DHT22;11327;52.334;9.506;2022-09-29T04:15:43;6.60;99.90
22319;DHT22;11327;52.334;9.506;2022-09-29T04:19:04;6.50;99.90
22319;DHT22;11327;52.334;9.506;2022-09-29T04:22:26;6.50;99.90
22319;DHT22;11327;52.334;9.506;2022-09-29T04:25:47;6.50;99.90
22319;DHT22;11327;52.334;9.506;2022-09-29T04:29:08;6.50;99.90
22319;DHT22;11327;52.334;9.506;2022-09-29T04:32:30;6.50;99.90
22319;DHT22;11327;52.334;9.506;2022-09-29T04:35:51;6.50;99.90
22319;DHT22;11327;52.334;9.506;2022-09-29T04:39:12;6.50;99.90
22319;DHT22;11327;52.334;9.506;2022-09-29T04:42:33;6.50;99.90
22319;DHT22;11327;52.334;9.506;2022-09-29T04:46:02;6.50;99.90
22319;DHT22;11327;52.334;9.506;2022-09-29T04:49:24;6.50;99.90
22319;DHT22;11327;52.334;9.506;2022-09-29T04:52:45;6.40;99.90
22319;DHT22;11327;52.334;9.506;2022-09-29T04:56:07;6.40;99.90
22319;DHT22;11327;52.334;9.506;2022-09-29T04:59:28;6.40;99.90
22319;DHT22;11327;52.334;9.506;2022-09-29T05:02:49;6.40;99.90
22319;DHT22;11327;52.334;9.506;2022-09-29T05:06:10;6.30;99.90
22319;DHT22;11327;52.334;9.506;2022-09-29T05:09:31;6.30;99.90
22319;DHT22;11327;52.334;9.506;2022-09-29T05:12:52;6.20;99.90
22319;DHT22;11327;52.334;9.506;2022-09-29T05:16:14;6.20;99.90
22319;DHT22;11327;52.334;9.506;2022-09-29T05:19:35;6.20;99.90
22319;DHT22;11327;52.334;9.506;2022-09-29T05:22:57;6.20;99.90
22319;DHT22;11327;52.334;9.506;2022-09-29T05:26:18;6.10;99.90
22319;DHT22;11327;52.334;9.506;2022-09-29T05:29:39;6.10;99.90
22319;DHT22;11327;52.334;9.506;2022-09-29T05:33:00;6.10;99.90
22319;DHT22;11327;52.334;9.506;2022-09-29T05:36:21;6.00;99.90
22319;DHT22;11327;52.334;9.506;2022-09-29T05:39:43;6.00;99.90
22319;DHT22;11327;52.334;9.506;2022-09-29T05:43:04;6.00;99.90
22319;DHT22;11327;52.334;9.506;2022-09-29T05:46:26;6.00;99.90
22319;DHT22;11327;52.334;9.506;2022-09-29T05:49:47;6.00;99.90
22319;DHT22;11327;52.334;9.506;2022-09-29T05:53:13;6.00;99.90
22319;DHT22;11327;52.334;9.506;2022-09-29T05:56:31;6.00;99.90
22319;DHT22;11327;52.334;9.506;2022-09-29T05:59:52;6.00;99.90
22319;DHT22;11327;52.334;9.506;2022-09-29T06:03:13;6.10;99.90
22319;DHT22;11327;52.334;9.506;2022-09-29T06:06:35;6.10;99.90
22319;DHT22;11327;52.334;9.506;2022-09-29T06:09:56;6.10;99.90
22319;DHT22;11327;52.334;9.506;2022-09-29T06:13:17;6.20;99.90
22319;DHT22;11327;52.334;9.506;2022-09-29T06:16:38;6.20;99.90
22319;DHT22;11327;52.334;9.506;2022-09-29T06:19:59;6.20;99.90
22319;DHT22;11327;52.334;9.506;2022-09-29T06:23:20;6.30;99.90
22319;DHT22;11327;52.334;9.506;2022-09-29T06:26:41;6.30;99.90
22319;DHT22;11327;52.334;9.506;2022-09-29T06:30:03;6.40;99.90
22319;DHT22;11327;52.334;9.506;2022-09-29T06:33:24;6.40;99.90
22319;DHT22;11327;52.334;9.506;2022-09-29T06:36:45;6.50;99.90
22319;DHT22;11327;52.334;9.506;2022-09-29T06:40:25;6.60;99.90
22319;DHT22;11327;52.334;9.506;2022-09-29T06:43:47;6.70;99.90
22319;DHT22;11327;52.334;9.506;2022-09-29T06:47:08;6.80;99.90
22319;DHT22;11327;52.334;9.506;2022-09-29T06:50:30;6.80;99.90
22319;DHT22;11327;52.334;9.506;2022-09-29T06:53:51;7.00;99.90
22319;DHT22;11327;52.334;9.506;2022-09-29T06:57:12;7.10;99.90
22319;DHT22;11327;52.334;9.506;2022-09-29T07:00:34;7.20;99.90
22319;DHT22;11327;52.334;9.506;2022-09-29T07:03:55;7.30;99.90
22319;DHT22;11327;52.334;9.506;2022-09-29T07:07:16;7.50;99.90
22319;DHT22;11327;52.334;9.506;2022-09-29T07:10:37;7.60;99.90
22319;DHT22;11327;52.334;9.506;2022-09-29T07:13:58;7.70;99.90
22319;DHT22;11327;52.334;9.506;2022-09-29T07:17:19;7.80;99.90
22319;DHT22;11327;52.334;9.506;2022-09-29T07:20:40;7.90;99.90
22319;DHT22;11327;52.334;9.506;2022-09-29T07:24:01;8.00;99.90
22319;DHT22;11327;52.334;9.506;2022-09-29T07:27:22;8.10;99.90
22319;DHT22;11327;52.334;9.506;2022-09-29T07:30:43;8.30;99.90
22319;DHT22;11327;52.334;9.506;2022-09-29T07:34:04;8.40;99.90
22319;DHT22;11327;52.334;9.506;2022-09-29T07:37:26;8.60;99.90
22319;DHT22;11327;52.334;9.506;2022-09-29T07:40:47;8.70;99.90
22319;DHT22;11327;52.334;9.506;2022-09-29T07:44:08;8.70;99.90
22319;DHT22;11327;52.334;9.506;2022-09-29T07:47:29;8.80;99.90
22319;DHT22;11327;52.334;9.506;2022-09-29T07:50:50;8.90;99.90
22319;DHT22;11327;52.334;9.506;2022-09-29T07:54:12;9.00;99.90
22319;DHT22;11327;52.334;9.506;2022-09-29T07:57:33;9.20;99.90
22319;DHT22;11327;52.334;9.506;2022-09-29T08:00:54;9.30;99.90
22319;DHT22;11327;52.334;9.506;2022-09-29T08:04:20;9.40;99.90
22319;DHT22;11327;52.334;9.506;2022-09-29T08:07:45;9.40;99.90
22319;DHT22;11327;52.334;9.506;2022-09-29T08:11:05;9.50;99.90
22319;DHT22;11327;52.334;9.506;2022-09-29T08:14:27;9.70;99.90
22319;DHT22;11327;52.334;9.506;2022-09-29T08:17:50;9.70;99.90
22319;DHT22;11327;52.334;9.506;2022-09-29T08:21:11;9.80;99.90
22319;DHT22;11327;52.334;9.506;2022-09-29T08:24:34;9.90;99.90
22319;DHT22;11327;52.334;9.506;2022-09-29T08:27:56;9.90;99.90
22319;DHT22;11327;52.334;9.506;2022-09-29T08:31:19;10.00;99.90
22319;DHT22;11327;52.334;9.506;2022-09-29T08:34:41;10.10;99.90
22319;DHT22;11327;52.334;9.506;2022-09-29T08:38:02;10.20;99.90
22319;DHT22;11327;52.334;9.506;2022-09-29T08:45:11;10.40;99.90
22319;DHT22;11327;52.334;9.506;2022-09-29T08:48:40;10.50;99.90
22319;DHT22;11327;52.334;9.506;2022-09-29T08:52:10;10.50;99.90
22319;DHT22;11327;52.334;9.506;2022-09-29T08:55:40;10.60;99.90
22319;DHT22;11327;52.334;9.506;2022-09-29T08:59:01;10.80;99.90
22319;DHT22;11327;52.334;9.506;2022-09-29T09:06:13;11.10;99.90
22319;DHT22;11327;52.334;9.506;2022-09-29T09:09:49;11.10;99.90
22319;DHT22;11327;52.334;9.506;2022-09-29T09:20:44;11.50;99.90
22319;DHT22;11327;52.334;9.506;2022-09-29T09:24:21;11.60;99.90
22319;DHT22;11327;52.334;9.506;2022-09-29T09:27:42;11.80;99.90
22319;DHT22;11327;52.334;9.506;2022-09-29T09:34:51;12.20;99.90
22319;DHT22;11327;52.334;9.506;2022-09-29T09:38:19;12.30;99.90
22319;DHT22;11327;52.334;9.506;2022-09-29T09:41:42;12.30;99.90
22319;DHT22;11327;52.334;9.506;2022-09-29T09:45:28;12.50;99.90
22319;DHT22;11327;52.334;9.506;2022-09-29T09:49:12;12.70;99.90
22319;DHT22;11327;52.334;9.506;2022-09-29T09:52:35;13.00;99.90
22319;DHT22;11327;52.334;9.506;2022-09-29T09:56:03;13.00;99.90
22319;DHT22;11327;52.334;9.506;2022-09-29T09:59:49;13.20;99.90
22319;DHT22;11327;52.334;9.506;2022-09-29T10:03:07;13.20;99.90
22319;DHT22;11327;52.334;9.506;2022-09-29T10:06:30;13.10;99.90
22319;DHT22;11327;52.334;9.506;2022-09-29T10:09:51;13.00;99.90
22319;DHT22;11327;52.334;9.506;2022-09-29T10:13:13;13.00;99.90
22319;DHT22;11327;52.334;9.506;2022-09-29T10:17:00;13.00;99.90
22319;DHT22;11327;52.334;9.506;2022-09-29T10:20:12;13.00;99.90
22319;DHT22;11327;52.334;9.506;2022-09-29T10:23:34;13.10;99.90
22319;DHT22;11327;52.334;9.506;2022-09-29T10:26:58;13.20;99.90
22319;DHT22;11327;52.334;9.506;2022-09-29T10:30:22;13.40;99.90
22319;DHT22;11327;52.334;9.506;2022-09-29T10:41:02;13.60;99.90
22319;DHT22;11327;52.334;9.506;2022-09-29T10:44:29;13.50;99.90
22319;DHT22;11327;52.334;9.506;2022-09-29T10:51:24;13.20;99.90
22319;DHT22;11327;52.334;9.506;2022-09-29T10:54:54;13.20;99.90
22319;DHT22;11327;52.334;9.506;2022-09-29T11:01:49;13.00;99.90
22319;DHT22;11327;52.334;9.506;2022-09-29T11:05:18;12.90;99.90
22319;DHT22;11327;52.334;9.506;2022-09-29T11:09:00;12.90;99.90
22319;DHT22;11327;52.334;9.506;2022-09-29T11:12:35;12.80;99.90
22319;DHT22;11327;52.334;9.506;2022-09-29T11:16:17;12.80;99.90
22319;DHT22;11327;52.334;9.506;2022-09-29T11:19:38;12.80;99.90
22319;DHT22;11327;52.334;9.506;2022-09-29T11:23:08;12.80;99.90
22319;DHT22;11327;52.334;9.506;2022-09-29T11:26:36;12.80;99.90
22319;DHT22;11327;52.334;9.506;2022-09-29T11:48:40;13.30;99.90
22319;DHT22;11327;52.334;9.506;2022-09-29T11:59:25;13.50;99.90
22319;DHT22;11327;52.334;9.506;2022-09-29T12:06:31;13.40;99.90
22319;DHT22;11327;52.334;9.506;2022-09-29T12:13:24;13.40;99.90
22319;DHT22;11327;52.334;9.506;2022-09-29T12:17:00;13.50;99.90
22319;DHT22;11327;52.334;9.506;2022-09-29T12:20:26;13.70;99.90
22319;DHT22;11327;52.334;9.506;2022-09-29T12:23:48;13.50;99.90
22319;DHT22;11327;52.334;9.506;2022-09-29T12:27:15;13.50;99.90
22319;DHT22;11327;52.334;9.506;2022-09-29T12:30:43;13.40;99.90
22319;DHT22;11327;52.334;9.506;2022-09-29T12:34:16;13.30;99.90
22319;DHT22;11327;52.334;9.506;2022-09-29T12:41:22;13.20;99.90
22319;DHT22;11327;52.334;9.506;2022-09-29T12:44:47;13.20;99.90
22319;DHT22;11327;52.334;9.506;2022-09-29T12:48:32;13.20;99.90
22319;DHT22;11327;52.334;9.506;2022-09-29T12:51:51;13.30;99.90
22319;DHT22;11327;52.334;9.506;2022-09-29T12:55:25;13.60;99.90
22319;DHT22;11327;52.334;9.506;2022-09-29T13:06:13;14.10;99.90
22319;DHT22;11327;52.334;9.506;2022-09-29T13:20:35;14.40;99.90
22319;DHT22;11327;52.334;9.506;2022-09-29T13:27:40;14.80;99.90
22319;DHT22;11327;52.334;9.506;2022-09-29T13:31:19;14.90;99.90
22319;DHT22;11327;52.334;9.506;2022-09-29T13:34:56;15.10;99.90
22319;DHT22;11327;52.334;9.506;2022-09-29T13:38:20;15.10;99.90
22319;DHT22;11327;52.334;9.506;2022-09-29T13:41:44;15.20;99.90
22319;DHT22;11327;52.334;9.506;2022-09-29T13:48:48;15.30;99.90
22319;DHT22;11327;52.334;9.506;2022-09-29T13:59:25;15.30;99.90
22319;DHT22;11327;52.334;9.506;2022-09-29T14:02:49;15.40;99.90
22319;DHT22;11327;52.334;9.506;2022-09-29T14:06:21;15.50;99.90
22319;DHT22;11327;52.334;9.506;2022-09-29T14:09:44;15.50;99.90
22319;DHT22;11327;52.334;9.506;2022-09-29T14:13:18;15.50;99.90
22319;DHT22;11327;52.334;9.506;2022-09-29T14:20:23;15.20;99.90
22319;DHT22;11327;52.334;9.506;2022-09-29T14:23:47;15.30;99.90
22319;DHT22;11327;52.334;9.506;2022-09-29T14:30:54;15.70;99.90
22319;DHT22;11327;52.334;9.506;2022-09-29T14:34:19;15.80;99.90
22319;DHT22;11327;52.334;9.506;2022-09-29T14:37:42;15.80;99.90
22319;DHT22;11327;52.334;9.506;2022-09-29T14:44:34;15.90;99.90
22319;DHT22;11327;52.334;9.506;2022-09-29T14:48:22;15.90;99.90
22319;DHT22;11327;52.334;9.506;2022-09-29T14:52:05;15.90;99.90
22319;DHT22;11327;52.334;9.506;2022-09-29T14:55:58;15.90;99.90
22319;DHT22;11327;52.334;9.506;2022-09-29T15:02:54;15.60;99.90
22319;DHT22;11327;52.334;9.506;2022-09-29T15:06:19;15.40;99.90
22319;DHT22;11327;52.334;9.506;2022-09-29T15:09:46;15.20;99.90
22319;DHT22;11327;52.334;9.506;2022-09-29T15:13:24;15.00;99.90
22319;DHT22;11327;52.334;9.506;2022-09-29T15:20:22;15.00;99.90
22319;DHT22;11327;52.334;9.506;2022-09-29T15:27:27;15.10;99.90
22319;DHT22;11327;52.334;9.506;2022-09-29T15:30:49;15.20;99.90
22319;DHT22;11327;52.334;9.506;2022-09-29T15:34:19;15.20;99.90
22319;DHT22;11327;52.334;9.506;2022-09-29T15:38:13;15.20;99.90
22319;DHT22;11327;52.334;9.506;2022-09-29T15:41:21;15.20;99.90
22319;DHT22;11327;52.334;9.506;2022-09-29T15:44:49;15.10;99.90
22319;DHT22;11327;52.334;9.506;2022-09-29T15:48:10;15.00;99.90
22319;DHT22;11327;52.334;9.506;2022-09-29T15:51:34;14.90;99.90
22319;DHT22;11327;52.334;9.506;2022-09-29T15:54:56;14.70;99.90
22319;DHT22;11327;52.334;9.506;2022-09-29T16:02:00;14.60;99.90
22319;DHT22;11327;52.334;9.506;2022-09-29T16:05:22;14.50;99.90
22319;DHT22;11327;52.334;9.506;2022-09-29T16:08:47;14.50;99.90
22319;DHT22;11327;52.334;9.506;2022-09-29T16:12:13;14.40;99.90
22319;DHT22;11327;52.334;9.506;2022-09-29T16:15:40;14.30;99.90
22319;DHT22;11327;52.334;9.506;2022-09-29T16:19:02;14.30;99.90
22319;DHT22;11327;52.334;9.506;2022-09-29T16:22:24;14.10;99.90
22319;DHT22;11327;52.334;9.506;2022-09-29T16:26:09;14.00;99.90
22319;DHT22;11327;52.334;9.506;2022-09-29T16:29:34;13.90;99.90
22319;DHT22;11327;52.334;9.506;2022-09-29T16:33:01;13.80;99.90
22319;DHT22;11327;52.334;9.506;2022-09-29T16:36:25;13.70;99.90
22319;DHT22;11327;52.334;9.506;2022-09-29T16:39:47;13.60;99.90
22319;DHT22;11327;52.334;9.506;2022-09-29T16:43:26;13.40;99.90
22319;DHT22;11327;52.334;9.506;2022-09-29T16:47:00;13.30;99.90
22319;DHT22;11327;52.334;9.506;2022-09-29T16:50:22;13.20;99.90
22319;DHT22;11327;52.334;9.506;2022-09-29T16:53:43;13.10;99.90
22319;DHT22;11327;52.334;9.506;2022-09-29T16:57:25;13.00;99.90
22319;DHT22;11327;52.334;9.506;2022-09-29T17:00:46;12.80;99.90
22319;DHT22;11327;52.334;9.506;2022-09-29T17:04:09;12.70;99.90
22319;DHT22;11327;52.334;9.506;2022-09-29T17:07:30;12.60;99.90
22319;DHT22;11327;52.334;9.506;2022-09-29T17:10:54;12.50;99.90
22319;DHT22;11327;52.334;9.506;2022-09-29T17:14:15;12.40;99.90
22319;DHT22;11327;52.334;9.506;2022-09-29T17:17:38;12.30;99.90
22319;DHT22;11327;52.334;9.506;2022-09-29T17:21:01;12.20;99.90
22319;DHT22;11327;52.334;9.506;2022-09-29T17:24:22;12.00;99.90
22319;DHT22;11327;52.334;9.506;2022-09-29T17:27:43;11.90;99.90
22319;DHT22;11327;52.334;9.506;2022-09-29T17:31:23;11.80;99.90
22319;DHT22;11327;52.334;9.506;2022-09-29T17:34:43;11.70;99.90
22319;DHT22;11327;52.334;9.506;2022-09-29T17:38:05;11.60;99.90
22319;DHT22;11327;52.334;9.506;2022-09-29T17:41:30;11.50;99.90
22319;DHT22;11327;52.334;9.506;2022-09-29T17:44:51;11.40;99.90
22319;DHT22;11327;52.334;9.506;2022-09-29T17:48:13;11.30;99.90
22319;DHT22;11327;52.334;9.506;2022-09-29T17:51:34;11.20;99.90
22319;DHT22;11327;52.334;9.506;2022-09-29T17:54:55;11.20;99.90
22319;DHT22;11327;52.334;9.506;2022-09-29T17:58:18;11.10;99.90
22319;DHT22;11327;52.334;9.506;2022-09-29T18:01:39;11.00;99.90
22319;DHT22;11327;52.334;9.506;2022-09-29T18:05:00;11.00;99.90
22319;DHT22;11327;52.334;9.506;2022-09-29T18:08:22;10.90;99.90
22319;DHT22;11327;52.334;9.506;2022-09-29T18:11:43;10.90;99.90
22319;DHT22;11327;52.334;9.506;2022-09-29T18:15:06;10.80;99.90
22319;DHT22;11327;52.334;9.506;2022-09-29T18:18:27;10.70;99.90
22319;DHT22;11327;52.334;9.506;2022-09-29T18:21:48;10.60;99.90
22319;DHT22;11327;52.334;9.506;2022-09-29T18:25:09;10.60;99.90
22319;DHT22;11327;52.334;9.506;2022-09-29T18:28:31;10.50;99.90
22319;DHT22;11327;52.334;9.506;2022-09-29T18:31:52;10.40;99.90
22319;DHT22;11327;52.334;9.506;2022-09-29T18:35:16;10.30;99.90
22319;DHT22;11327;52.334;9.506;2022-09-29T18:38:37;10.30;99.90
22319;DHT22;11327;52.334;9.506;2022-09-29T18:41:58;10.20;99.90
22319;DHT22;11327;52.334;9.506;2022-09-29T18:45:20;10.10;99.90
22319;DHT22;11327;52.334;9.506;2022-09-29T18:48:44;10.00;99.90
22319;DHT22;11327;52.334;9.506;2022-09-29T18:52:06;10.00;99.90
22319;DHT22;11327;52.334;9.506;2022-09-29T18:55:30;9.90;99.90
22319;DHT22;11327;52.334;9.506;2022-09-29T18:58:51;9.90;99.90
22319;DHT22;11327;52.334;9.506;2022-09-29T19:02:12;9.80;99.90
22319;DHT22;11327;52.334;9.506;2022-09-29T19:05:34;9.80;99.90
22319;DHT22;11327;52.334;9.506;2022-09-29T19:08:56;9.70;99.90
22319;DHT22;11327;52.334;9.506;2022-09-29T19:12:17;9.70;99.90
22319;DHT22;11327;52.334;9.506;2022-09-29T19:15:40;9.70;99.90
22319;DHT22;11327;52.334;9.506;2022-09-29T19:19:03;9.60;99.90
22319;DHT22;11327;52.334;9.506;2022-09-29T19:22:26;9.60;99.90
22319;DHT22;11327;52.334;9.506;2022-09-29T19:25:50;9.50;99.90
22319;DHT22;11327;52.334;9.506;2022-09-29T19:29:12;9.50;99.90
22319;DHT22;11327;52.334;9.506;2022-09-29T19:32:33;9.40;99.90
22319;DHT22;11327;52.334;9.506;2022-09-29T19:35:54;9.40;99.90
22319;DHT22;11327;52.334;9.506;2022-09-29T19:39:15;9.40;99.90
22319;DHT22;11327;52.334;9.506;2022-09-29T19:42:36;9.30;99.90
22319;DHT22;11327;52.334;9.506;2022-09-29T19:45:57;9.30;99.90
22319;DHT22;11327;52.334;9.506;2022-09-29T19:49:20;9.30;99.90
22319;DHT22;11327;52.334;9.506;2022-09-29T19:52:41;9.20;99.90
22319;DHT22;11327;52.334;9.506;2022-09-29T19:56:11;9.20;99.90
22319;DHT22;11327;52.334;9.506;2022-09-29T19:59:31;9.20;99.90
22319;DHT22;11327;52.334;9.506;2022-09-29T20:02:53;9.20;99.90
22319;DHT22;11327;52.334;9.506;2022-09-29T20:06:14;9.10;99.90
22319;DHT22;11327;52.334;9.506;2022-09-29T20:09:35;9.10;99.90
22319;DHT22;11327;52.334;9.506;2022-09-29T20:12:56;9.10;99.90
22319;DHT22;11327;52.334;9.506;2022-09-29T20:16:17;9.10;99.90
22319;DHT22;11327;52.334;9.506;2022-09-29T20:19:38;9.00;99.90
22319;DHT22;11327;52.334;9.506;2022-09-29T20:22:59;9.00;99.90
22319;DHT22;11327;52.334;9.506;2022-09-29T20:26:21;9.00;99.90
22319;DHT22;11327;52.334;9.506;2022-09-29T20:29:44;9.00;99.90
22319;DHT22;11327;52.334;9.506;2022-09-29T20:33:07;8.90;99.90
22319;DHT22;11327;52.334;9.506;2022-09-29T20:36:28;8.90;99.90
22319;DHT22;11327;52.334;9.506;2022-09-29T20:39:49;8.90;99.90
22319;DHT22;11327;52.334;9.506;2022-09-29T20:43:10;8.90;99.90
22319;DHT22;11327;52.334;9.506;2022-09-29T20:46:33;8.80;99.90
22319;DHT22;11327;52.334;9.506;2022-09-29T20:49:55;8.80;99.90
22319;DHT22;11327;52.334;9.506;2022-09-29T20:53:16;8.80;99.90
22319;DHT22;11327;52.334;9.506;2022-09-29T20:56:39;8.70;99.90
22319;DHT22;11327;52.334;9.506;2022-09-29T21:00:01;8.70;99.90
22319;DHT22;11327;52.334;9.506;2022-09-29T21:03:22;8.70;99.90
22319;DHT22;11327;52.334;9.506;2022-09-29T21:06:45;8.70;99.90
22319;DHT22;11327;52.334;9.506;2022-09-29T21:10:07;8.70;99.90
22319;DHT22;11327;52.334;9.506;2022-09-29T21:13:30;8.80;99.90
22319;DHT22;11327;52.334;9.506;2022-09-29T21:16:52;8.80;99.90
22319;DHT22;11327;52.334;9.506;2022-09-29T21:20:13;8.80;99.90
22319;DHT22;11327;52.334;9.506;2022-09-29T21:23:35;8.80;99.90
22319;DHT22;11327;52.334;9.506;2022-09-29T21:26:56;8.80;99.90
22319;DHT22;11327;52.334;9.506;2022-09-29T21:30:18;8.80;99.90
22319;DHT22;11327;52.334;9.506;2022-09-29T21:33:40;8.80;99.90
22319;DHT22;11327;52.334;9.506;2022-09-29T21:37:02;8.90;99.90
22319;DHT22;11327;52.334;9.506;2022-09-29T21:40:23;8.90;99.90
22319;DHT22;11327;52.334;9.506;2022-09-29T21:43:45;8.90;99.90
22319;DHT22;11327;52.334;9.506;2022-09-29T21:47:06;8.90;99.90
22319;DHT22;11327;52.334;9.506;2022-09-29T21:50:27;8.90;99.90
22319;DHT22;11327;52.334;9.506;2022-09-29T21:53:53;8.90;99.90
22319;DHT22;11327;52.334;9.506;2022-09-29T21:57:12;8.90;99.90
22319;DHT22;11327;52.334;9.506;2022-09-29T22:00:33;8.90;99.90
22319;DHT22;11327;52.334;9.506;2022-09-29T22:03:55;8.90;99.90
22319;DHT22;11327;52.334;9.506;2022-09-29T22:07:16;8.90;99.90
22319;DHT22;11327;52.334;9.506;2022-09-29T22:10:37;8.90;99.90
22319;DHT22;11327;52.334;9.506;2022-09-29T22:13:59;8.90;99.90
22319;DHT22;11327;52.334;9.506;2022-09-29T22:17:20;8.90;99.90
22319;DHT22;11327;52.334;9.506;2022-09-29T22:20:42;8.90;99.90
22319;DHT22;11327;52.334;9.506;2022-09-29T22:24:03;8.90;99.90
22319;DHT22;11327;52.334;9.506;2022-09-29T22:27:24;8.90;99.90
22319;DHT22;11327;52.334;9.506;2022-09-29T22:30:45;8.90;99.90
22319;DHT22;11327;52.334;9.506;2022-09-29T22:34:06;8.90;99.90
22319;DHT22;11327;52.334;9.506;2022-09-29T22:37:28;8.90;99.90
22319;DHT22;11327;52.334;9.506;2022-09-29T22:40:49;8.90;99.90
22319;DHT22;11327;52.334;9.506;2022-09-29T22:44:10;8.90;99.90
22319;DHT22;11327;52.334;9.506;2022-09-29T22:47:32;9.00;99.90
22319;DHT22;11327;52.334;9.506;2022-09-29T22:50:53;9.00;99.90
22319;DHT22;11327;52.334;9.506;2022-09-29T22:54:14;8.90;99.90
22319;DHT22;11327;52.334;9.506;2022-09-29T22:57:35;8.90;99.90
22319;DHT22;11327;52.334;9.506;2022-09-29T23:01:04;8.90;99.90
22319;DHT22;11327;52.334;9.506;2022-09-29T23:04:27;8.90;99.90
22319;DHT22;11327;52.334;9.506;2022-09-29T23:07:48;8.90;99.90
22319;DHT22;11327;52.334;9.506;2022-09-29T23:11:17;8.90;99.90
22319;DHT22;11327;52.334;9.506;2022-09-29T23:14:39;8.90;99.90
22319;DHT22;11327;52.334;9.506;2022-09-29T23:18:00;8.90;99.90
22319;DHT22;11327;52.334;9.506;2022-09-29T23:21:22;8.90;99.90
22319;DHT22;11327;52.334;9.506;2022-09-29T23:24:43;8.80;99.90
22319;DHT22;11327;52.334;9.506;2022-09-29T23:28:04;8.80;99.90
22319;DHT22;11327;52.334;9.506;2022-09-29T23:31:26;8.80;99.90
22319;DHT22;11327;52.334;9.506;2022-09-29T23:34:47;8.80;99.90
22319;DHT22;11327;52.334;9.506;2022-09-29T23:38:09;8.80;99.90
22319;DHT22;11327;52.334;9.506;2022-09-29T23:41:50;8.80;99.90
22319;DHT22;11327;52.334;9.506;2022-09-29T23:45:12;8.70;99.90
22319;DHT22;11327;52.334;9.506;2022-09-29T23:48:33;8.70;99.90
22319;DHT22;11327;52.334;9.506;2022-09-29T23:51:56;8.70;99.90
22319;DHT22;11327;52.334;9.506;2022-09-29T23:55:18;8.70;99.90
22319;DHT22;11327;52.334;9.506;2022-09-29T23:58:39;8.60;99.90
